Time;durP1;ratioP1;P1;durP2;ratioP2;P2;SDS_P1;SDS_P2;PMS_P1;PMS_P2;Temp;Humidity;BMP_temperature;BMP_pressure;BME280_temperature;BME280_humidity;BME280_pressure;Samples;Min_cycle;Max_cycle;Signal;HPM_P1;HPM_P2
2022/01/10 00:02:21;;;;;;;;;;;3.50;99.90;;;;;;6146041;23;19948;-81
2022/01/10 00:04:47;;;;;;;;;;;3.50;99.90;;;;;;6119364;23;20340;-82
2022/01/10 00:07:12;;;;;;;;;;;3.40;99.90;;;;;;6121810;23;19924;-81
2022/01/10 00:09:38;;;;;;;;;;;3.40;99.90;;;;;;6122005;23;19943;-81
2022/01/10 00:12:03;;;;;;;;;;;3.40;99.90;;;;;;6120883;23;20274;-81
2022/01/10 00:14:29;;;;;;;;;;;3.40;99.90;;;;;;6145524;23;19933;-81
2022/01/10 00:16:54;;;;;;;;;;;3.30;99.90;;;;;;6146420;23;19917;-81
2022/01/10 00:19:20;;;;;;;;;;;3.30;99.90;;;;;;6143785;23;19925;-81
2022/01/10 00:21:46;;;;;;;;;;;3.30;99.90;;;;;;6144741;23;19948;-81
2022/01/10 00:24:11;;;;;;;;;;;4.20;99.90;;;;;;6146938;23;19932;-81
2022/01/10 00:26:37;;;;;;;;;;;3.20;99.90;;;;;;6145052;23;19921;-81
2022/01/10 00:29:02;;;;;;;;;;;3.20;99.90;;;;;;6122102;23;19925;-81
2022/01/10 00:31:28;;;;;;;;;;;3.20;99.90;;;;;;6117414;23;19936;-81
2022/01/10 00:33:53;;;;;;;;;;;3.10;99.90;;;;;;6145356;23;20230;-82
2022/01/10 00:36:19;;;;;;;;;;;3.10;99.90;;;;;;6120451;23;20271;-81
2022/01/10 00:38:44;;;;;;;;;;;3.10;99.90;;;;;;6144985;23;19931;-82
2022/01/10 00:41:10;;;;;;;;;;;3.00;99.90;;;;;;6144458;23;19986;-82
2022/01/10 00:43:40;;;;;;;;;;;3.00;99.90;;;;;;6144138;23;19931;-81
2022/01/10 00:46:06;;;;;;;;;;;2.90;99.90;;;;;;6119163;23;19946;-82
2022/01/10 00:48:31;;;;;;;;;;;2.90;99.90;;;;;;6121222;23;20288;-81
2022/01/10 00:50:57;;;;;;;;;;;2.90;99.90;;;;;;6143840;23;19956;-81
2022/01/10 00:53:23;;;;;;;;;;;2.90;99.90;;;;;;6119904;23;19928;-82
2022/01/10 00:55:49;;;;;;;;;;;2.90;99.90;;;;;;6146304;23;20219;-81
2022/01/10 00:58:14;;;;;;;;;;;2.80;99.90;;;;;;6145291;23;20051;-81
2022/01/10 01:00:40;;;;;;;;;;;2.80;99.90;;;;;;6144604;23;19934;-82
2022/01/10 01:03:05;;;;;;;;;;;2.80;99.90;;;;;;6146708;23;20329;-82
2022/01/10 01:05:34;;;;;;;;;;;2.80;99.90;;;;;;6144519;23;19931;-81
2022/01/10 01:08:03;;;;;;;;;;;2.80;99.90;;;;;;6145661;23;19940;-82
2022/01/10 01:10:58;;;;;;;;;;;2.70;99.90;;;;;;6120879;23;20337;-82
2022/01/10 01:26:31;;;;;;;;;;;2.50;99.90;;;;;;6120220;23;19924;-82
2022/01/10 01:28:57;;;;;;;;;;;2.50;99.90;;;;;;6145420;23;19920;-82
2022/01/10 01:31:23;;;;;;;;;;;2.40;99.90;;;;;;6120585;23;19968;-82
2022/01/10 01:33:49;;;;;;;;;;;2.40;99.90;;;;;;6146346;23;19925;-82
2022/01/10 01:36:20;;;;;;;;;;;2.40;99.90;;;;;;6143519;23;19948;-82
2022/01/10 01:38:45;;;;;;;;;;;2.30;99.90;;;;;;6121335;23;19979;-81
2022/01/10 01:41:25;;;;;;;;;;;2.20;99.90;;;;;;6146011;23;19995;-82
2022/01/10 01:43:51;;;;;;;;;;;2.20;99.90;;;;;;6144633;23;20566;-82
2022/01/10 01:46:17;;;;;;;;;;;2.20;99.90;;;;;;6144460;23;19931;-81
2022/01/10 01:48:43;;;;;;;;;;;2.20;99.90;;;;;;6144135;23;19924;-82
2022/01/10 01:51:08;;;;;;;;;;;2.10;99.90;;;;;;6118397;23;19996;-82
2022/01/10 01:53:36;;;;;;;;;;;2.10;99.90;;;;;;6120266;23;19920;-82
2022/01/10 01:56:06;;;;;;;;;;;2.10;99.90;;;;;;6120184;23;20315;-81
2022/01/10 01:58:32;;;;;;;;;;;2.10;99.90;;;;;;6143503;23;19935;-82
2022/01/10 02:00:58;;;;;;;;;;;2.00;99.90;;;;;;6143791;23;19971;-82
2022/01/10 02:03:24;;;;;;;;;;;2.00;99.90;;;;;;6142809;23;19920;-82
2022/01/10 02:05:49;;;;;;;;;;;2.00;99.90;;;;;;6145520;23;20307;-82
2022/01/10 02:08:15;;;;;;;;;;;2.60;99.90;;;;;;6119742;23;19938;-82
2022/01/10 02:10:40;;;;;;;;;;;1.90;99.90;;;;;;6143609;23;20294;-82
2022/01/10 02:13:06;;;;;;;;;;;1.90;99.90;;;;;;6145132;23;20331;-82
2022/01/10 02:18:01;;;;;;;;;;;1.90;99.90;;;;;;6119096;23;20364;-82
2022/01/10 02:20:31;;;;;;;;;;;1.90;99.90;;;;;;6145353;23;19984;-82
2022/01/10 02:22:57;;;;;;;;;;;1.80;99.90;;;;;;6144189;23;19991;-82
2022/01/10 02:25:22;;;;;;;;;;;1.80;99.90;;;;;;6143888;23;19956;-81
2022/01/10 02:27:48;;;;;;;;;;;1.80;99.90;;;;;;6120693;23;19924;-81
2022/01/10 02:30:14;;;;;;;;;;;1.70;99.90;;;;;;6144290;23;19928;-81
2022/01/10 02:32:39;;;;;;;;;;;1.70;99.90;;;;;;6119207;23;19986;-81
2022/01/10 02:35:05;;;;;;;;;;;1.70;99.90;;;;;;6120082;23;19921;-81
2022/01/10 02:37:31;;;;;;;;;;;1.70;99.90;;;;;;6144882;23;19940;-81
2022/01/10 02:39:58;;;;;;;;;;;1.70;99.90;;;;;;6144216;23;20222;-81
2022/01/10 02:42:24;;;;;;;;;;;1.70;99.90;;;;;;6145220;23;19924;-82
2022/01/10 02:44:49;;;;;;;;;;;1.70;99.90;;;;;;6144299;23;19924;-81
2022/01/10 02:47:15;;;;;;;;;;;1.60;99.90;;;;;;6144619;23;19987;-82
2022/01/10 02:49:41;;;;;;;;;;;1.60;99.90;;;;;;6144205;23;19987;-82
2022/01/10 02:52:06;;;;;;;;;;;1.60;99.90;;;;;;6143159;23;19965;-82
2022/01/10 02:54:32;;;;;;;;;;;1.60;99.90;;;;;;6144551;23;20005;-81
2022/01/10 02:56:57;;;;;;;;;;;1.60;99.90;;;;;;6146496;23;19925;-81
2022/01/10 02:59:24;;;;;;;;;;;1.50;99.90;;;;;;6118642;23;19931;-81
2022/01/10 03:01:50;;;;;;;;;;;1.50;99.90;;;;;;6144432;23;19920;-81
2022/01/10 03:04:16;;;;;;;;;;;2.10;99.90;;;;;;6144391;23;19951;-81
2022/01/10 03:06:42;;;;;;;;;;;2.40;99.90;;;;;;6143981;23;20377;-81
2022/01/10 03:09:11;;;;;;;;;;;1.50;99.90;;;;;;6144718;23;19950;-81
2022/01/10 03:11:38;;;;;;;;;;;1.50;99.90;;;;;;6145661;23;19924;-81
2022/01/10 03:14:04;;;;;;;;;;;1.50;99.90;;;;;;6146831;23;19963;-81
2022/01/10 03:16:30;;;;;;;;;;;1.40;99.90;;;;;;6147551;23;19969;-81
2022/01/10 03:18:55;;;;;;;;;;;1.40;99.90;;;;;;6147762;23;20000;-81
2022/01/10 03:21:21;;;;;;;;;;;1.40;99.90;;;;;;6146594;23;19928;-81
2022/01/10 03:23:47;;;;;;;;;;;1.40;99.90;;;;;;6148285;23;19925;-81
2022/01/10 03:26:12;;;;;;;;;;;1.30;99.90;;;;;;6149354;23;19999;-81
2022/01/10 03:28:38;;;;;;;;;;;1.30;99.90;;;;;;6148211;23;19924;-82
2022/01/10 03:31:03;;;;;;;;;;;1.30;99.90;;;;;;6147677;23;19972;-82
2022/01/10 03:33:29;;;;;;;;;;;1.30;99.90;;;;;;6122561;23;19929;-81
2022/01/10 03:35:54;;;;;;;;;;;1.30;99.90;;;;;;6144990;23;20444;-81
2022/01/10 03:38:20;;;;;;;;;;;1.30;99.90;;;;;;6121465;23;20056;-81
2022/01/10 03:40:46;;;;;;;;;;;1.20;99.90;;;;;;6146604;23;19920;-81
2022/01/10 03:43:12;;;;;;;;;;;1.20;99.90;;;;;;6146538;23;19917;-81
2022/01/10 03:45:37;;;;;;;;;;;1.20;99.90;;;;;;6145032;23;19924;-81
2022/01/10 03:48:03;;;;;;;;;;;1.20;99.90;;;;;;6147319;23;20050;-82
2022/01/10 03:50:28;;;;;;;;;;;1.20;99.90;;;;;;6144641;23;20309;-81
2022/01/10 03:52:54;;;;;;;;;;;1.20;99.90;;;;;;6121273;23;19972;-81
2022/01/10 03:55:20;;;;;;;;;;;1.20;99.90;;;;;;6148019;23;20249;-80
2022/01/10 03:57:45;;;;;;;;;;;1.20;99.90;;;;;;6145305;23;19928;-81
2022/01/10 04:00:11;;;;;;;;;;;1.10;99.90;;;;;;6146615;23;20377;-81
2022/01/10 04:02:38;;;;;;;;;;;1.10;99.90;;;;;;6145540;23;20299;-81
2022/01/10 04:05:05;;;;;;;;;;;1.10;99.90;;;;;;6145890;23;20011;-81
2022/01/10 04:07:31;;;;;;;;;;;1.10;99.90;;;;;;6146211;23;20330;-81
2022/01/10 04:09:56;;;;;;;;;;;1.10;99.90;;;;;;6146145;23;19936;-82
2022/01/10 04:12:24;;;;;;;;;;;1.10;99.90;;;;;;6146299;23;19931;-81
2022/01/10 04:14:50;;;;;;;;;;;1.10;99.90;;;;;;6145545;23;19928;-82
2022/01/10 04:17:16;;;;;;;;;;;1.10;99.90;;;;;;6145397;23;19921;-81
2022/01/10 04:19:41;;;;;;;;;;;1.10;99.90;;;;;;6120319;23;19929;-82
2022/01/10 04:22:07;;;;;;;;;;;1.10;99.90;;;;;;6145240;23;19920;-82
2022/01/10 04:24:32;;;;;;;;;;;1.10;99.90;;;;;;6144647;23;19924;-81
2022/01/10 04:26:58;;;;;;;;;;;1.10;99.90;;;;;;6120560;23;19984;-81
2022/01/10 04:29:23;;;;;;;;;;;1.00;99.90;;;;;;6144979;23;19920;-81
2022/01/10 04:31:49;;;;;;;;;;;1.10;99.90;;;;;;6144757;23;19924;-81
2022/01/10 04:34:15;;;;;;;;;;;1.00;99.90;;;;;;6119859;23;19928;-81
2022/01/10 04:36:41;;;;;;;;;;;1.10;99.90;;;;;;6145370;23;19925;-81
2022/01/10 04:39:07;;;;;;;;;;;1.10;99.90;;;;;;6143307;23;19943;-82
2022/01/10 04:41:32;;;;;;;;;;;1.00;99.90;;;;;;6146052;23;19932;-81
2022/01/10 04:43:58;;;;;;;;;;;1.00;99.90;;;;;;6120211;23;19987;-82
2022/01/10 04:46:23;;;;;;;;;;;1.00;99.90;;;;;;6144121;23;19924;-82
2022/01/10 04:48:49;;;;;;;;;;;1.00;99.90;;;;;;6145889;23;19921;-82
2022/01/10 04:51:16;;;;;;;;;;;1.00;99.90;;;;;;6120360;23;19927;-82
2022/01/10 04:53:46;;;;;;;;;;;1.00;99.90;;;;;;6144983;23;19995;-81
2022/01/10 04:56:12;;;;;;;;;;;1.00;99.90;;;;;;6120535;23;19920;-81
2022/01/10 04:58:39;;;;;;;;;;;1.00;99.90;;;;;;6144814;23;19924;-82
2022/01/10 05:01:05;;;;;;;;;;;1.00;99.90;;;;;;6147872;23;19920;-81
2022/01/10 05:03:31;;;;;;;;;;;1.00;99.90;;;;;;6121219;23;19925;-81
2022/01/10 05:05:57;;;;;;;;;;;1.00;99.90;;;;;;6144149;23;19931;-81
2022/01/10 05:08:23;;;;;;;;;;;1.10;99.90;;;;;;6145634;23;19928;-82
2022/01/10 05:10:49;;;;;;;;;;;1.00;99.90;;;;;;6145991;23;19999;-81
2022/01/10 05:13:14;;;;;;;;;;;1.00;99.90;;;;;;6144389;23;19927;-81
2022/01/10 05:15:42;;;;;;;;;;;1.00;99.90;;;;;;6146103;23;19924;-81
2022/01/10 05:18:09;;;;;;;;;;;1.00;99.90;;;;;;6145733;23;19921;-82
2022/01/10 05:20:35;;;;;;;;;;;1.00;99.90;;;;;;6143922;23;19927;-81
2022/01/10 05:23:01;;;;;;;;;;;1.10;99.90;;;;;;6121986;23;20349;-81
2022/01/10 05:25:26;;;;;;;;;;;1.00;99.90;;;;;;6120254;23;19927;-81
2022/01/10 05:27:52;;;;;;;;;;;1.00;99.90;;;;;;6145474;23;19971;-81
2022/01/10 05:30:18;;;;;;;;;;;1.00;99.90;;;;;;6120343;23;19921;-81
2022/01/10 05:32:43;;;;;;;;;;;1.00;99.90;;;;;;6145776;23;19920;-81
2022/01/10 05:35:09;;;;;;;;;;;1.00;99.90;;;;;;6119610;23;20211;-81
2022/01/10 05:37:34;;;;;;;;;;;1.00;99.90;;;;;;6147319;23;19921;-81
2022/01/10 05:40:00;;;;;;;;;;;1.00;99.90;;;;;;6145702;23;19925;-82
2022/01/10 05:42:25;;;;;;;;;;;1.00;99.90;;;;;;6120503;23;19987;-82
2022/01/10 05:44:51;;;;;;;;;;;1.00;99.90;;;;;;6142877;23;19924;-85
2022/01/10 05:47:16;;;;;;;;;;;1.00;99.90;;;;;;6120249;23;20317;-81
2022/01/10 05:49:47;;;;;;;;;;;1.00;99.90;;;;;;6119713;23;20277;-82
2022/01/10 05:52:13;;;;;;;;;;;1.70;99.90;;;;;;6145684;23;20004;-81
2022/01/10 05:54:38;;;;;;;;;;;1.50;99.90;;;;;;6121765;23;19951;-81
2022/01/10 05:57:04;;;;;;;;;;;0.90;99.90;;;;;;6144231;23;19920;-81
2022/01/10 05:59:31;;;;;;;;;;;0.90;99.90;;;;;;6143256;23;19920;-82
2022/01/10 06:01:57;;;;;;;;;;;0.90;99.90;;;;;;6145785;23;20012;-81
2022/01/10 06:04:22;;;;;;;;;;;0.90;99.90;;;;;;6143688;23;19982;-82
2022/01/10 06:06:51;;;;;;;;;;;1.70;99.90;;;;;;6145917;23;20019;-82
2022/01/10 06:09:16;;;;;;;;;;;0.90;99.90;;;;;;6145003;23;20277;-81
2022/01/10 06:11:42;;;;;;;;;;;0.90;99.90;;;;;;6145484;23;20003;-81
2022/01/10 06:14:08;;;;;;;;;;;0.90;99.90;;;;;;6145183;23;19995;-81
2022/01/10 06:16:34;;;;;;;;;;;0.80;99.90;;;;;;6145493;23;19925;-80
2022/01/10 06:19:00;;;;;;;;;;;0.80;99.90;;;;;;6145328;23;20024;-82
2022/01/10 06:21:25;;;;;;;;;;;0.80;99.90;;;;;;6119796;23;19939;-81
2022/01/10 06:23:51;;;;;;;;;;;0.80;99.90;;;;;;6143212;23;19940;-81
2022/01/10 06:26:16;;;;;;;;;;;0.80;99.90;;;;;;6119911;23;19925;-81
2022/01/10 06:28:42;;;;;;;;;;;0.70;99.90;;;;;;6144961;23;19924;-81
2022/01/10 06:31:07;;;;;;;;;;;0.70;99.90;;;;;;6120443;23;19924;-81
2022/01/10 06:33:33;;;;;;;;;;;0.60;99.90;;;;;;6120832;23;19959;-82
2022/01/10 06:35:58;;;;;;;;;;;0.60;99.90;;;;;;6118445;23;19924;-81
2022/01/10 06:38:24;;;;;;;;;;;0.60;99.90;;;;;;6142608;23;19920;-82
2022/01/10 06:40:49;;;;;;;;;;;0.60;99.90;;;;;;6144181;23;19924;-82
2022/01/10 06:43:15;;;;;;;;;;;0.70;99.90;;;;;;6142801;23;20314;-81
2022/01/10 06:45:40;;;;;;;;;;;0.60;99.90;;;;;;6142821;23;19937;-82
2022/01/10 06:48:06;;;;;;;;;;;0.60;99.90;;;;;;6147265;23;20316;-81
2022/01/10 06:50:31;;;;;;;;;;;0.70;99.90;;;;;;6144140;23;19931;-80
2022/01/10 06:52:57;;;;;;;;;;;0.70;99.90;;;;;;6145062;23;20319;-80
2022/01/10 06:55:23;;;;;;;;;;;0.70;99.90;;;;;;6144780;23;20679;-80
2022/01/10 06:57:48;;;;;;;;;;;0.70;99.90;;;;;;6140960;23;19998;-80
2022/01/10 07:00:14;;;;;;;;;;;0.60;99.90;;;;;;6142548;23;20611;-82
2022/01/10 07:02:39;;;;;;;;;;;0.70;99.90;;;;;;6121506;23;19927;-80
2022/01/10 07:05:05;;;;;;;;;;;1.40;99.90;;;;;;6145304;23;19995;-81
2022/01/10 07:07:31;;;;;;;;;;;0.70;99.90;;;;;;6145698;23;20448;-81
2022/01/10 07:09:56;;;;;;;;;;;0.60;99.90;;;;;;6145782;23;19917;-81
2022/01/10 07:12:22;;;;;;;;;;;0.60;99.90;;;;;;6144258;23;19932;-81
2022/01/10 07:14:48;;;;;;;;;;;0.60;99.90;;;;;;6146353;23;19928;-81
2022/01/10 07:17:17;;;;;;;;;;;0.60;99.90;;;;;;6123441;23;19970;-84
2022/01/10 07:19:43;;;;;;;;;;;0.60;99.90;;;;;;6116569;23;19920;-81
2022/01/10 07:22:08;;;;;;;;;;;0.50;99.90;;;;;;6145247;23;19916;-80
2022/01/10 07:24:40;;;;;;;;;;;0.50;99.90;;;;;;6144015;23;19921;-81
2022/01/10 07:27:06;;;;;;;;;;;1.20;99.90;;;;;;6119500;23;19921;-81
2022/01/10 07:29:31;;;;;;;;;;;0.40;99.90;;;;;;6145349;23;19932;-81
2022/01/10 07:32:06;;;;;;;;;;;0.40;99.90;;;;;;6142900;23;19921;-82
2022/01/10 07:34:31;;;;;;;;;;;0.00;99.90;;;;;;6143488;23;19928;-81
2022/01/10 07:36:57;;;;;;;;;;;0.30;99.90;;;;;;6120004;23;19920;-82
2022/01/10 07:39:25;;;;;;;;;;;0.40;99.90;;;;;;6144252;23;19963;-82
2022/01/10 07:41:51;;;;;;;;;;;-0.80;99.90;;;;;;6145352;23;19921;-83
2022/01/10 07:44:17;;;;;;;;;;;0.10;99.90;;;;;;6121700;23;19933;-82
2022/01/10 07:46:43;;;;;;;;;;;0.30;99.90;;;;;;6122774;23;19931;-82
2022/01/10 07:49:08;;;;;;;;;;;0.10;99.90;;;;;;6121921;23;19921;-82
2022/01/10 07:51:34;;;;;;;;;;;0.30;99.90;;;;;;6146743;23;19921;-82
2022/01/10 07:54:02;;;;;;;;;;;0.20;99.90;;;;;;6120631;23;19921;-81
2022/01/10 07:56:27;;;;;;;;;;;0.30;99.90;;;;;;6142640;23;19992;-81
2022/01/10 07:58:53;;;;;;;;;;;0.20;99.90;;;;;;6146202;23;20010;-81
2022/01/10 08:01:19;;;;;;;;;;;1.30;99.90;;;;;;6146693;23;20227;-81
2022/01/10 08:03:49;;;;;;;;;;;0.60;99.90;;;;;;6147223;23;19995;-80
2022/01/10 08:06:15;;;;;;;;;;;0.30;99.90;;;;;;6120794;23;20417;-81
2022/01/10 08:08:44;;;;;;;;;;;0.30;99.90;;;;;;6119874;23;19929;-79
2022/01/10 08:11:09;;;;;;;;;;;-0.40;99.90;;;;;;6144907;23;19921;-79
2022/01/10 08:13:35;;;;;;;;;;;0.10;99.90;;;;;;6112595;23;20664;-82
2022/01/10 08:16:00;;;;;;;;;;;1.50;99.90;;;;;;6144761;23;20008;-82
2022/01/10 08:18:27;;;;;;;;;;;0.60;99.90;;;;;;6146765;23;19921;-81
2022/01/10 08:21:02;;;;;;;;;;;0.50;99.90;;;;;;6146168;23;19963;-81
2022/01/10 08:23:28;;;;;;;;;;;0.30;99.90;;;;;;6118490;23;20006;-81
2022/01/10 08:26:08;;;;;;;;;;;-0.10;99.90;;;;;;6142280;23;19955;-82
2022/01/10 08:28:38;;;;;;;;;;;0.30;99.90;;;;;;6145923;23;19931;-83
2022/01/10 08:31:04;;;;;;;;;;;0.00;99.90;;;;;;6147514;23;19955;-82
2022/01/10 08:33:29;;;;;;;;;;;0.50;99.90;;;;;;6146616;23;19927;-79
2022/01/10 08:35:55;;;;;;;;;;;1.20;99.90;;;;;;6122062;23;19929;-82
2022/01/10 08:38:21;;;;;;;;;;;0.30;99.90;;;;;;6144920;23;19943;-81
2022/01/10 08:40:49;;;;;;;;;;;0.40;99.90;;;;;;6147391;23;19955;-81
2022/01/10 08:43:24;;;;;;;;;;;0.30;99.90;;;;;;6117526;23;20317;-82
2022/01/10 08:45:55;;;;;;;;;;;2.60;99.90;;;;;;6122311;23;19924;-82
2022/01/10 08:48:21;;;;;;;;;;;0.50;99.90;;;;;;6123607;23;19917;-82
2022/01/10 08:50:46;;;;;;;;;;;0.30;99.90;;;;;;6148026;23;20230;-82
2022/01/10 08:53:14;;;;;;;;;;;0.30;99.90;;;;;;6146602;23;19989;-82
2022/01/10 08:55:40;;;;;;;;;;;0.50;99.90;;;;;;6100497;23;19984;-82
2022/01/10 08:58:06;;;;;;;;;;;0.30;99.90;;;;;;6063580;23;20007;-81
2022/01/10 09:03:35;;;;;;;;;;;0.60;99.90;;;;;;6091410;23;19957;-83
2022/01/10 09:06:01;;;;;;;;;;;0.60;99.90;;;;;;6088815;23;20353;-81
2022/01/10 09:08:56;;;;;;;;;;;0.50;99.90;;;;;;6087240;23;19921;-83
2022/01/10 09:11:30;;;;;;;;;;;-1.30;99.90;;;;;;6036997;23;19944;-83
2022/01/10 09:13:56;;;;;;;;;;;0.60;99.90;;;;;;6061659;23;19956;-82
2022/01/10 09:16:37;;;;;;;;;;;3.10;99.90;;;;;;6084915;23;20254;-82
2022/01/10 09:19:18;;;;;;;;;;;0.00;99.90;;;;;;6062584;23;20052;-82
2022/01/10 09:21:51;;;;;;;;;;;0.70;99.90;;;;;;6089324;23;19976;-82
2022/01/10 09:24:16;;;;;;;;;;;0.10;99.90;;;;;;6063384;23;19970;-83
2022/01/10 09:26:42;;;;;;;;;;;0.80;99.90;;;;;;6063281;23;20078;-83
2022/01/10 09:29:10;;;;;;;;;;;0.80;99.90;;;;;;6088480;23;19921;-82
2022/01/10 09:31:36;;;;;;;;;;;0.90;99.90;;;;;;6088154;23;19921;-82
2022/01/10 09:34:33;;;;;;;;;;;2.30;99.90;;;;;;6064498;23;19984;-82
2022/01/10 09:37:08;;;;;;;;;;;1.10;99.90;;;;;;6087605;23;20228;-82
2022/01/10 09:39:33;;;;;;;;;;;1.30;99.90;;;;;;6066361;23;20310;-82
2022/01/10 09:42:10;;;;;;;;;;;1.40;99.90;;;;;;6088196;23;19948;-83
2022/01/10 09:44:36;;;;;;;;;;;1.80;99.90;;;;;;6065252;23;20338;-82
2022/01/10 09:47:02;;;;;;;;;;;2.00;99.90;;;;;;6064952;23;19925;-82
2022/01/10 09:49:28;;;;;;;;;;;2.60;99.90;;;;;;6088722;23;20323;-83
2022/01/10 09:52:08;;;;;;;;;;;5.50;99.90;;;;;;6064593;23;19936;-83
2022/01/10 09:54:34;;;;;;;;;;;3.90;99.90;;;;;;6074578;23;19975;-82
2022/01/10 09:57:00;;;;;;;;;;;4.30;99.90;;;;;;6117142;23;20000;-83
2022/01/10 09:59:25;;;;;;;;;;;4.50;99.90;;;;;;6140705;23;20000;-82
2022/01/10 10:01:51;;;;;;;;;;;4.90;99.90;;;;;;6141806;23;19921;-82
2022/01/10 10:04:20;;;;;;;;;;;5.40;99.90;;;;;;6117714;23;19932;-82
2022/01/10 10:06:56;;;;;;;;;;;5.70;99.90;;;;;;6117374;23;19936;-82
2022/01/10 10:09:29;;;;;;;;;;;5.80;99.90;;;;;;6116764;23;19935;-82
2022/01/10 10:11:55;;;;;;;;;;;6.20;99.90;;;;;;6117620;23;20262;-81
2022/01/10 10:14:37;;;;;;;;;;;7.00;99.90;;;;;;5999185;23;19926;-83
2022/01/10 10:17:08;;;;;;;;;;;8.50;99.90;;;;;;5975056;23;19930;-83
2022/01/10 10:19:34;;;;;;;;;;;9.80;99.90;;;;;;6043921;23;19921;-84
2022/01/10 10:22:00;;;;;;;;;;;11.80;99.90;;;;;;6115833;23;19944;-83
2022/01/10 10:24:25;;;;;;;;;;;11.80;99.90;;;;;;6115274;23;19932;-82
2022/01/10 10:26:55;;;;;;;;;;;12.40;99.90;;;;;;6139578;23;20019;-84
2022/01/10 10:29:24;;;;;;;;;;;12.90;99.90;;;;;;6139994;23;19927;-83
2022/01/10 10:31:58;;;;;;;;;;;12.60;99.90;;;;;;6142475;23;19940;-85
2022/01/10 10:37:16;;;;;;;;;;;14.30;99.90;;;;;;6034992;23;19925;-83
2022/01/10 10:39:42;;;;;;;;;;;15.10;99.90;;;;;;6109152;23;19983;-81
2022/01/10 10:42:11;;;;;;;;;;;15.50;99.90;;;;;;6145778;23;20302;-80
2022/01/10 10:44:41;;;;;;;;;;;15.50;99.90;;;;;;6120900;23;19921;-80
2022/01/10 10:47:07;;;;;;;;;;;15.70;99.90;;;;;;6146387;23;19921;-80
2022/01/10 10:49:37;;;;;;;;;;;16.10;99.90;;;;;;6120226;23;20360;-81
2022/01/10 10:52:10;;;;;;;;;;;15.90;94.50;;;;;;6143479;23;19921;-82
2022/01/10 10:54:37;;;;;;;;;;;16.80;95.70;;;;;;6118890;23;19920;-82
2022/01/10 10:57:04;;;;;;;;;;;16.90;96.00;;;;;;6118569;23;19921;-85
2022/01/10 10:59:35;;;;;;;;;;;17.10;91.30;;;;;;6120456;23;19948;-88
2022/01/10 11:02:02;;;;;;;;;;;16.60;86.20;;;;;;6095474;23;19921;-82
2022/01/10 11:04:30;;;;;;;;;;;16.30;84.20;;;;;;6117593;23;19969;-84
2022/01/10 11:06:58;;;;;;;;;;;15.30;76.50;;;;;;6094747;23;19921;-84
2022/01/10 11:09:24;;;;;;;1999.90;999.90;;;14.90;75.80;;;;;;6092095;23;20412;-84
2022/01/10 11:11:50;;;;;;;1999.90;999.90;;;14.10;99.90;;;;;;6093742;23;20014;-82
2022/01/10 11:14:22;;;;;;;1999.90;999.90;;;14.00;99.90;;;;;;6093805;23;20018;-88
2022/01/10 11:17:00;;;;;;;;;;;;;;;;;;;;;
2022/01/10 11:19:27;;;;;;;1999.90;999.90;;;13.30;99.90;;;;;;6087549;23;20026;-86
2022/01/10 11:22:02;;;;;;;1999.90;999.90;;;12.80;99.90;;;;;;6094214;23;20024;-86
2022/01/10 11:24:53;;;;;;;1999.90;999.90;;;12.80;99.90;;;;;;6094632;23;20018;-87
2022/01/10 11:27:36;;;;;;;1999.90;999.90;;;12.90;99.90;;;;;;6092576;23;20077;-84
2022/01/10 11:30:39;;;;;;;1999.90;999.90;;;13.30;99.90;;;;;;6093339;23;20022;-84
2022/01/10 11:33:07;;;;;;;1999.90;999.90;;;13.80;99.90;;;;;;6093624;23;20427;-85
2022/01/10 11:35:37;;;;;;;1999.90;999.90;;;14.40;99.90;;;;;;6095154;23;20128;-87
2022/01/10 11:38:20;;;;;;;1999.90;999.90;;;14.30;99.90;;;;;;6094277;23;20017;-85
2022/01/10 11:40:48;;;;;;;1999.90;999.90;;;13.20;99.90;;;;;;6094363;23;20018;-85
2022/01/10 11:43:33;;;;;;;1999.90;999.90;;;11.90;99.90;;;;;;6093106;23;20014;-85
2022/01/10 11:46:12;;;;;;;1999.90;999.90;;;11.00;99.90;;;;;;6094925;23;20449;-84
2022/01/10 11:48:47;;;;;;;1999.90;999.90;;;10.10;99.90;;;;;;6093598;23;20017;-84
2022/01/10 11:51:14;;;;;;;1999.90;999.90;;;9.60;99.90;;;;;;6094090;23;20525;-85
2022/01/10 11:53:45;;;;;;;1999.90;999.90;;;9.20;99.90;;;;;;6119618;23;20022;-85
2022/01/10 11:56:23;;;;;;;1999.90;999.90;;;8.90;99.90;;;;;;6094464;23;20026;-87
2022/01/10 11:59:09;;;;;;;1999.90;999.90;;;8.60;99.90;;;;;;6093172;23;20513;-86
2022/01/10 12:01:37;;;;;;;1999.90;999.90;;;8.20;99.90;;;;;;6094708;23;20014;-88
2022/01/10 12:04:03;;;;;;;1999.90;999.90;;;7.90;99.90;;;;;;6095081;23;20041;-85
2022/01/10 12:06:29;;;;;;;1999.90;999.90;;;7.60;99.90;;;;;;6094518;23;20099;-87
2022/01/10 12:08:56;;;;;;;1999.90;999.90;;;7.40;99.90;;;;;;6092051;23;20640;-86
2022/01/10 12:11:24;;;;;;;1999.90;999.90;;;7.30;99.90;;;;;;6118724;23;20014;-86
2022/01/10 12:13:52;;;;;;;1999.90;999.90;;;7.10;99.90;;;;;;6093515;23;20029;-85
2022/01/10 12:16:18;;;;;;;1999.90;999.90;;;7.00;99.90;;;;;;6091780;23;20148;-86
2022/01/10 12:18:44;;;;;;;1999.90;999.90;;;7.00;99.90;;;;;;6094047;23;20529;-85
2022/01/10 12:21:09;;;;;;;1999.90;999.90;;;6.90;99.90;;;;;;6094836;23;20018;-85
2022/01/10 12:23:35;;;;;;;1999.90;999.90;;;6.90;99.90;;;;;;6091178;23;20050;-86
2022/01/10 12:26:01;;;;;;;1999.90;999.90;;;6.80;99.90;;;;;;6119359;23;20024;-86
2022/01/10 12:28:28;;;;;;;1999.90;999.90;;;7.10;99.90;;;;;;6091230;23;20033;-85
2022/01/10 12:30:55;;;;;;;1999.90;999.90;;;6.70;99.90;;;;;;6091166;23;20020;-85
2022/01/10 12:33:23;;;;;;;1999.90;999.90;;;6.70;99.90;;;;;;6093157;23;20545;-86
2022/01/10 12:35:49;;;;;;;1999.90;999.90;;;6.60;99.90;;;;;;6094353;23;20100;-86
2022/01/10 12:38:23;;;;;;;1999.90;999.90;;;6.60;99.90;;;;;;6093278;23;20112;-85
2022/01/10 12:40:51;;;;;;;1999.90;999.90;;;6.60;99.90;;;;;;6094034;23;20014;-85
2022/01/10 12:43:18;;;;;;;1999.90;999.90;;;6.60;99.90;;;;;;6093289;23;20522;-84
2022/01/10 12:45:53;;;;;;;1999.90;999.90;;;6.60;99.90;;;;;;6093929;23;20021;-87
2022/01/10 12:48:23;;;;;;;1999.90;999.90;;;6.50;99.90;;;;;;6094726;23;20026;-87
2022/01/10 12:51:05;;;;;;;1999.90;999.90;;;6.50;99.90;;;;;;6094574;23;20435;-87
2022/01/10 12:53:31;;;;;;;1999.90;999.90;;;6.50;99.90;;;;;;6096072;23;20037;-86
2022/01/10 12:55:57;;;;;;;1999.90;999.90;;;6.50;99.90;;;;;;6095338;23;20018;-85
2022/01/10 12:58:23;;;;;;;1999.90;999.90;;;6.50;99.90;;;;;;6093283;23;20086;-83
2022/01/10 13:00:48;;;;;;;1999.90;999.90;;;6.50;99.90;;;;;;6093982;23;20037;-87
2022/01/10 13:03:24;;;;;;;1999.90;999.90;;;6.40;99.90;;;;;;6096357;23;20418;-86
2022/01/10 13:05:50;;;;;;;1999.90;999.90;;;6.40;99.90;;;;;;6100009;23;20084;-87
2022/01/10 13:08:16;;;;;;;1999.90;999.90;;;6.40;99.90;;;;;;6095996;23;20406;-84
2022/01/10 13:10:45;;;;;;;1999.90;999.90;;;7.60;99.90;;;;;;6089030;23;20025;-86
2022/01/10 13:13:11;;;;;;;1999.90;999.90;;;6.40;99.90;;;;;;6094961;23;20022;-88
2022/01/10 13:15:41;;;;;;;1535.35;999.90;;;8.30;99.90;;;;;;6093883;23;20022;-88
2022/01/10 13:18:14;;;;;;;1626.38;999.90;;;6.50;99.90;;;;;;6095396;23;20140;-86
2022/01/10 13:20:40;;;;;;;1670.30;999.90;;;6.30;99.90;;;;;;6093666;23;20542;-87
2022/01/10 13:23:08;;;;;;;1667.50;999.90;;;6.20;99.90;;;;;;6095363;23;20033;-88
2022/01/10 13:25:40;;;;;;;1597.40;999.90;;;6.30;99.90;;;;;;6093391;23;20346;-87
2022/01/10 13:28:08;;;;;;;1732.53;999.90;;;6.30;99.90;;;;;;6091583;23;20073;-86
2022/01/10 13:30:55;;;;;;;1696.25;999.90;;;6.30;99.90;;;;;;6092555;23;20018;-87
2022/01/10 13:33:46;;;;;;;1748.75;999.90;;;6.30;99.90;;;;;;6091316;23;20100;-87
2022/01/10 13:36:33;;;;;;;1711.93;999.90;;;6.20;99.90;;;;;;6092323;23;20022;-88
2022/01/10 13:42:26;;;;;;;1669.57;999.90;;;6.20;99.90;;;;;;6106487;23;20022;-86
2022/01/10 13:45:00;;;;;;;1693.20;999.90;;;6.30;99.90;;;;;;6089869;23;20092;-88
2022/01/10 13:47:26;;;;;;;1645.68;999.90;;;6.30;99.90;;;;;;6089616;23;20491;-87
2022/01/10 13:50:38;;;;;;;1635.10;999.90;;;8.10;99.90;;;;;;6094312;23;20018;-87
2022/01/10 13:53:29;;;;;;;1603.55;999.90;;;6.90;99.90;;;;;;6091988;23;20097;-87
2022/01/10 13:56:18;;;;;;;1659.70;999.90;;;6.20;99.90;;;;;;6067616;23;20031;-85
2022/01/10 13:59:16;;;;;;;1730.25;999.90;;;6.20;99.90;;;;;;6060020;23;20082;-86
2022/01/10 14:01:44;;;;;;;1690.95;999.90;;;6.20;99.90;;;;;;6060276;23;20406;-88
2022/01/10 14:04:45;;;;;;;1668.05;999.90;;;6.20;99.90;;;;;;6063491;23;20025;-86
2022/01/10 14:07:21;;;;;;;1655.28;999.90;;;6.20;99.90;;;;;;6062518;23;20018;-86
2022/01/10 14:10:02;;;;;;;1667.05;999.90;;;6.10;99.90;;;;;;6062013;23;20025;-86
2022/01/10 14:12:28;;;;;;;1707.57;999.90;;;5.70;99.90;;;;;;6061798;23;20045;-85
2022/01/10 14:14:54;;;;;;;1672.90;999.90;;;6.10;99.90;;;;;;6064180;23;20121;-88
2022/01/10 14:17:20;;;;;;;1650.78;999.90;;;7.10;99.90;;;;;;6064061;23;20033;-86
2022/01/10 14:19:45;;;;;;;1730.65;999.90;;;7.20;99.90;;;;;;6059021;23;20043;-87
2022/01/10 14:22:22;;;;;;;1688.15;999.90;;;6.00;99.90;;;;;;6062660;23;20041;-86
2022/01/10 14:24:48;;;;;;;1585.10;999.90;;;8.70;99.90;;;;;;6063426;23;20023;-86
2022/01/10 14:27:14;;;;;;;1537.40;999.90;;;7.10;99.90;;;;;;6064035;23;20018;-85